createdAt,value
2019-04-28T05:43:00.796Z,14.75
2019-04-28T05:45:33.120Z,11.15
2019-04-28T05:48:04.822Z,10.55
2019-04-28T05:50:49.933Z,13.83
2019-04-28T05:53:27.552Z,8.50
2019-04-28T05:56:05.426Z,11.78
2019-04-28T05:58:45.159Z,14.83
2019-04-28T06:01:28.042Z,9.78
2019-04-28T06:04:00.909Z,7.42
2019-04-28T06:06:36.388Z,10.72
2019-04-28T06:09:13.472Z,11.45
2019-04-28T06:11:44.979Z,9.33
2019-04-28T06:14:16.482Z,10.65
2019-04-28T06:19:40.407Z,7.60
2019-04-28T06:22:11.921Z,8.63
2019-04-28T06:24:43.813Z,13.05
2019-04-28T06:27:15.533Z,9.18
2019-04-28T06:35:37.761Z,8.48
2019-04-28T06:38:09.258Z,10.00
2019-04-28T06:40:42.308Z,12.03
2019-04-28T06:43:13.854Z,13.08
2019-04-28T06:45:45.584Z,12.82
2019-04-28T06:48:29.690Z,13.98
2019-04-28T07:00:33.498Z,8.65
2019-04-28T07:03:12.975Z,11.75
2019-04-28T07:05:40.453Z,8.18
2019-04-28T07:08:13.883Z,11.63
2019-04-28T07:10:47.072Z,13.10
2019-04-28T07:13:20.678Z,13.20
2019-04-28T07:15:51.563Z,13.32
2019-04-28T07:18:23.760Z,12.37
2019-04-28T07:21:00.937Z,11.60
2019-04-28T07:23:33.384Z,12.80
2019-04-28T07:26:05.400Z,10.80
2019-04-28T07:28:36.976Z,11.35
2019-04-28T07:31:08.797Z,7.50
2019-04-28T07:33:40.531Z,9.70
2019-04-28T07:36:12.104Z,13.10
2019-04-28T07:38:43.977Z,11.25
2019-04-28T07:41:15.240Z,12.07
2019-04-28T07:43:46.936Z,10.20
2019-04-28T07:46:18.270Z,11.95
2019-04-28T07:48:52.280Z,10.75
2019-04-28T07:51:24.666Z,11.73
2019-04-28T07:54:04.510Z,10.15
2019-04-28T07:56:34.321Z,9.78
2019-04-28T07:59:05.943Z,7.62
2019-04-28T08:01:37.756Z,11.20
2019-04-28T08:04:09.374Z,10.40
2019-04-28T08:06:40.976Z,9.38
2019-04-28T08:09:14.522Z,12.10
2019-04-28T08:11:46.179Z,6.60
2019-04-28T08:14:19.715Z,9.80
2019-04-28T08:16:51.096Z,9.73
2019-04-28T08:19:22.501Z,10.75
2019-04-28T08:21:54.080Z,7.92
2019-04-28T08:24:25.358Z,10.90
2019-04-28T08:26:57.343Z,9.30
2019-04-28T08:29:29.163Z,10.53
2019-04-28T08:32:09.077Z,12.20
2019-04-28T08:34:40.438Z,11.75
2019-04-28T08:37:12.388Z,8.75
2019-04-28T08:39:43.838Z,6.85
2019-04-28T08:42:16.022Z,10.48
2019-04-28T08:44:47.460Z,7.83
2019-04-28T08:47:18.912Z,9.83
2019-04-28T08:49:50.551Z,10.38
2019-04-28T08:52:24.320Z,12.47
2019-04-28T08:54:57.244Z,7.67
2019-04-28T08:57:28.720Z,8.55
2019-04-28T09:00:00.251Z,8.80
2019-04-28T09:02:33.475Z,9.13
2019-04-28T09:05:05.092Z,9.80
2019-04-28T09:07:36.985Z,7.47
2019-04-28T09:10:08.777Z,7.92
2019-04-28T09:12:40.563Z,10.35
2019-04-28T09:15:12.426Z,8.80
2019-04-28T09:17:43.939Z,7.30
2019-04-28T09:20:16.791Z,10.00
2019-04-28T09:22:48.395Z,9.88
2019-04-28T09:25:20.206Z,8.03
2019-04-28T09:27:52.170Z,11.85
2019-04-28T09:30:23.976Z,9.78
2019-04-28T09:32:55.838Z,6.47
2019-04-28T09:35:27.146Z,7.80
2019-04-28T09:37:58.675Z,10.32
2019-04-28T09:40:30.355Z,10.38
2019-04-28T09:43:20.933Z,8.23
2019-04-28T09:46:01.366Z,9.63
2019-04-28T09:48:33.177Z,8.45
2019-04-28T09:51:04.656Z,10.50
2019-04-28T09:53:36.590Z,13.53
2019-04-28T09:56:08.093Z,8.83
2019-04-28T09:58:39.608Z,10.05
2019-04-28T10:01:11.335Z,6.05
2019-04-28T10:03:43.174Z,10.63
2019-04-28T10:06:14.638Z,9.58
2019-04-28T10:08:46.103Z,10.03
2019-04-28T10:11:30.004Z,11.88
2019-04-28T10:13:51.610Z,10.95
2019-04-28T10:16:23.161Z,9.03
2019-04-28T10:18:56.302Z,11.93
2019-04-28T10:21:27.709Z,8.33
2019-04-28T10:23:59.388Z,14.23
2019-04-28T10:26:31.251Z,10.88
2019-04-28T10:29:03.218Z,11.70
2019-04-28T10:31:35.337Z,12.73
2019-04-28T10:34:07.069Z,12.80
2019-04-28T10:36:38.464Z,10.28
2019-04-28T10:39:26.189Z,9.43
2019-04-28T10:41:57.579Z,13.40
2019-04-28T10:44:30.578Z,13.62
2019-04-28T10:47:03.181Z,10.55
2019-04-28T10:49:34.800Z,12.98
2019-04-28T10:52:06.216Z,8.75
2019-04-28T10:54:37.948Z,12.43
2019-04-28T10:57:09.449Z,12.33
2019-04-28T10:59:41.055Z,8.15
2019-04-28T11:02:12.432Z,14.10
2019-04-28T11:05:08.072Z,9.33
2019-04-28T11:07:32.861Z,11.70
2019-04-28T11:10:16.436Z,9.38
2019-04-28T11:12:47.770Z,10.13
2019-04-28T11:15:37.612Z,13.03
2019-04-28T11:18:10.696Z,12.65
2019-04-28T11:20:42.202Z,10.90
2019-04-28T11:23:13.889Z,14.83
2019-04-28T11:25:45.721Z,19.12
2019-04-28T11:28:17.102Z,17.48
2019-04-28T11:30:48.724Z,9.68
2019-04-28T11:33:59.893Z,9.05
2019-04-28T11:36:30.910Z,14.20
2019-04-28T11:39:02.876Z,11.28
2019-04-28T11:41:36.133Z,9.08
2019-04-28T11:44:07.767Z,9.33
2019-04-28T11:46:39.831Z,10.03
2019-04-28T11:49:11.459Z,11.03
2019-04-28T11:51:43.114Z,10.95
2019-04-28T11:54:14.801Z,11.18
2019-04-28T11:56:46.443Z,8.68
2019-04-28T11:59:18.866Z,8.35
2019-04-28T12:01:50.554Z,6.25
2019-04-28T12:04:23.588Z,8.48
2019-04-28T12:06:56.095Z,6.78
2019-04-28T12:09:44.497Z,8.10
2019-04-28T12:12:53.011Z,6.12
2019-04-28T12:15:53.531Z,11.45
2019-04-28T12:18:42.881Z,6.97
2019-04-28T12:21:14.502Z,5.62
2019-04-28T12:23:45.840Z,5.55
2019-04-28T12:26:17.306Z,4.95
2019-04-28T12:28:49.080Z,4.28
2019-04-28T12:31:20.699Z,11.65
2019-04-28T12:33:52.170Z,6.30
2019-04-28T12:36:23.715Z,5.87
2019-04-28T12:38:55.058Z,5.17
2019-04-28T12:41:26.255Z,6.70
2019-04-28T12:43:57.914Z,5.17
2019-04-28T12:46:30.537Z,7.47
2019-04-28T12:49:06.890Z,7.97
2019-04-28T12:51:38.808Z,6.83
2019-04-28T12:54:11.861Z,3.60
2019-04-28T12:56:43.209Z,4.72
2019-04-28T12:59:23.462Z,5.15
2019-04-28T13:02:22.840Z,4.25
2019-04-28T13:05:00.182Z,5.33
2019-04-28T13:07:31.818Z,5.47
2019-04-28T13:10:03.364Z,5.40
2019-04-28T13:12:34.768Z,6.03
2019-04-28T13:15:06.915Z,4.95
2019-04-28T13:17:38.402Z,4.95
2019-04-28T13:20:16.671Z,3.65
2019-04-28T13:22:48.280Z,6.53
2019-04-28T13:25:19.879Z,6.95
2019-04-28T13:27:51.220Z,6.95
2019-04-28T13:30:22.616Z,6.22
2019-04-28T13:32:53.879Z,7.25
2019-04-28T13:35:25.602Z,7.37
2019-04-28T13:37:56.815Z,8.13
2019-04-28T13:40:31.630Z,6.80
2019-04-28T13:43:03.277Z,7.05
2019-04-28T13:45:34.805Z,7.15
2019-04-28T13:48:06.327Z,8.68
2019-04-28T13:50:39.414Z,9.05
2019-04-28T13:53:12.026Z,10.43
2019-04-28T13:56:00.779Z,8.20
2019-04-28T13:58:45.198Z,8.78
2019-04-28T14:01:44.439Z,8.33
2019-04-28T14:04:37.627Z,9.98
2019-04-28T14:07:10.047Z,9.63
2019-04-28T14:09:41.695Z,12.75
2019-04-28T14:12:13.101Z,14.05
2019-04-28T14:14:44.464Z,12.85
2019-04-28T14:17:17.090Z,11.43
2019-04-28T14:19:48.663Z,13.95
2019-04-28T14:22:20.103Z,14.00
2019-04-28T14:24:51.625Z,12.63
2019-04-28T14:27:23.142Z,17.42
2019-04-28T14:29:54.805Z,19.42
2019-04-28T14:32:29.026Z,20.55
2019-04-28T14:35:00.638Z,17.48
2019-04-28T14:37:32.603Z,15.48
2019-04-28T14:40:04.899Z,21.73
2019-04-28T14:42:37.559Z,17.20
2019-04-28T14:45:11.582Z,17.00
2019-04-28T14:47:43.579Z,16.12
2019-04-28T14:50:15.229Z,19.50
2019-04-28T14:52:46.925Z,16.25
2019-04-28T14:55:20.612Z,15.08
2019-04-28T14:57:52.128Z,17.37
2019-04-28T15:00:29.119Z,15.88
2019-04-28T15:03:05.808Z,11.68
2019-04-28T15:05:52.284Z,15.58
2019-04-28T15:08:40.503Z,9.83
2019-04-28T15:11:18.231Z,12.28
2019-04-28T15:13:49.873Z,9.05
2019-04-28T15:16:21.182Z,12.18
2019-04-28T15:18:52.509Z,10.75
2019-04-28T15:21:24.459Z,8.38
2019-04-28T15:23:56.193Z,8.75
2019-04-28T15:26:27.671Z,10.38
2019-04-28T15:28:59.340Z,7.60
2019-04-28T15:31:30.867Z,7.28
2019-04-28T15:34:04.261Z,10.60
2019-04-28T15:36:35.588Z,16.25
2019-04-28T15:39:09.405Z,9.55
2019-04-28T15:41:40.977Z,7.65
2019-04-28T15:44:12.396Z,8.45
2019-04-28T15:46:43.710Z,10.23
2019-04-28T15:49:16.393Z,7.03
2019-04-28T15:51:50.871Z,10.30
2019-04-28T15:54:23.567Z,7.67
2019-04-28T15:56:54.977Z,7.30
2019-04-28T15:59:26.357Z,7.22
2019-04-28T16:01:58.032Z,9.13
2019-04-28T16:04:29.405Z,7.70
2019-04-28T16:07:00.901Z,10.23
2019-04-28T16:09:32.217Z,8.28
2019-04-28T16:12:03.838Z,10.70
2019-04-28T16:14:35.274Z,12.53
2019-04-28T16:17:06.790Z,12.98
2019-04-28T16:19:38.379Z,14.70
2019-04-28T16:22:11.596Z,12.53
2019-04-28T16:24:42.921Z,10.48
2019-04-28T16:27:14.268Z,9.90
2019-04-28T16:29:45.994Z,14.58
2019-04-28T16:32:17.418Z,12.47
2019-04-28T16:34:49.105Z,10.68
2019-04-28T16:37:20.614Z,11.55
2019-04-28T16:39:52.078Z,12.03
2019-04-28T16:42:26.655Z,14.47
2019-04-28T16:45:00.686Z,14.65
2019-04-28T16:47:32.880Z,14.23
2019-04-28T16:50:05.042Z,11.30
2019-04-28T16:52:36.477Z,12.50
2019-04-28T16:55:17.464Z,11.83
2019-04-28T16:58:09.465Z,16.48
2019-04-28T17:00:56.366Z,11.40
2019-04-28T17:03:28.927Z,11.25
2019-04-28T17:06:00.382Z,13.28
2019-04-28T17:08:33.624Z,15.40
2019-04-28T17:11:06.769Z,16.17
2019-04-28T17:13:41.043Z,13.20
2019-04-28T17:16:12.970Z,12.37
2019-04-28T17:18:44.421Z,13.88
2019-04-28T17:21:15.995Z,16.67
2019-04-28T17:23:47.839Z,13.58
2019-04-28T17:26:19.223Z,15.72
2019-04-28T17:28:50.984Z,17.25
2019-04-28T17:31:23.031Z,13.08
2019-04-28T17:33:56.248Z,30.48
2019-04-28T17:36:28.855Z,18.55
2019-04-28T17:39:06.338Z,18.10
2019-04-28T17:41:36.877Z,35.05
2019-04-28T17:44:09.402Z,27.90
2019-04-28T17:46:41.773Z,21.33
2019-04-28T17:49:13.678Z,23.18
2019-04-28T17:51:45.653Z,24.82
2019-04-28T17:54:17.049Z,20.32
2019-04-28T17:56:48.481Z,25.00
2019-04-28T17:59:19.831Z,21.75
2019-04-28T18:02:10.562Z,22.48
2019-04-28T18:04:51.814Z,24.18
2019-04-28T18:07:32.151Z,19.98
2019-04-28T18:10:06.358Z,19.10
2019-04-28T18:12:37.859Z,17.95
2019-04-28T18:15:24.090Z,19.30
2019-04-28T18:18:04.168Z,18.98
2019-04-28T18:20:35.629Z,19.07
2019-04-28T18:23:07.289Z,18.10
2019-04-28T18:25:40.593Z,18.05
2019-04-28T18:28:12.176Z,19.17
2019-04-28T18:30:50.870Z,19.95
2019-04-28T18:33:52.868Z,19.12
2019-04-28T18:36:32.125Z,16.85
2019-04-28T18:39:28.906Z,18.27
2019-04-28T18:42:14.779Z,16.02
2019-04-28T18:44:47.642Z,19.25
2019-04-28T18:47:19.079Z,16.82
2019-04-28T18:49:51.605Z,16.77
2019-04-28T18:52:23.016Z,20.80
2019-04-28T18:54:54.623Z,16.02
2019-04-28T18:57:26.408Z,16.60
2019-04-28T18:59:57.784Z,16.48
2019-04-28T19:02:44.139Z,16.90
2019-04-28T19:05:15.868Z,14.68
2019-04-28T19:08:15.391Z,20.40
2019-04-28T19:11:04.169Z,15.53
2019-04-28T19:13:39.839Z,13.78
2019-04-28T19:16:29.114Z,15.05
2019-04-28T19:19:03.923Z,14.18
2019-04-28T19:21:35.334Z,13.75
2019-04-28T19:24:08.483Z,16.37
2019-04-28T19:26:40.039Z,14.30
2019-04-28T19:29:11.922Z,14.25
2019-04-28T19:31:43.303Z,10.88
2019-04-28T19:34:14.964Z,10.50
2019-04-28T19:36:46.861Z,11.40
2019-04-28T19:39:19.928Z,10.10
2019-04-28T19:41:53.027Z,9.58
2019-04-28T19:44:26.758Z,13.32
2019-04-28T19:46:58.242Z,10.03
2019-04-28T19:49:29.740Z,10.25
2019-04-28T19:52:01.283Z,9.48
2019-04-28T19:54:36.979Z,7.87
2019-04-28T19:57:14.707Z,9.90
2019-04-28T20:00:04.166Z,8.05
2019-04-28T20:02:37.534Z,8.90
2019-04-28T20:05:10.773Z,9.23
2019-04-28T20:07:42.206Z,7.62
2019-04-28T20:10:14.118Z,6.05
2019-04-28T20:12:45.454Z,6.83
2019-04-28T20:15:17.414Z,8.45
2019-04-28T20:17:48.924Z,9.90
2019-04-28T20:20:20.348Z,6.75
2019-04-28T20:22:55.960Z,6.90
2019-04-28T20:25:27.421Z,8.75
2019-04-28T20:27:59.110Z,6.22
2019-04-28T20:30:30.912Z,7.30
2019-04-28T20:33:07.285Z,8.30
2019-04-28T20:35:38.793Z,8.40
2019-04-28T20:38:16.622Z,12.55
2019-04-28T20:40:57.441Z,6.22
2019-04-28T20:43:29.190Z,6.12
2019-04-28T20:46:00.458Z,5.97
2019-04-28T20:48:32.824Z,8.08
2019-04-28T20:51:04.654Z,7.97
2019-04-28T20:53:37.308Z,6.95
2019-04-28T20:56:08.832Z,11.55
2019-04-28T20:58:40.257Z,8.60
2019-04-28T21:01:11.852Z,8.25
2019-04-28T21:03:43.379Z,6.87
2019-04-28T21:06:15.014Z,9.15
2019-04-28T21:08:46.655Z,8.58
2019-04-28T21:11:18.638Z,8.33
2019-04-28T21:13:50.136Z,8.65
2019-04-28T21:16:21.810Z,9.28
2019-04-28T21:18:56.075Z,8.93
2019-04-28T21:21:27.533Z,12.55
2019-04-28T21:23:58.852Z,10.20
2019-04-28T21:26:30.772Z,10.43
2019-04-28T21:29:02.337Z,10.25
2019-04-28T21:31:34.165Z,9.90
2019-04-28T21:34:05.393Z,8.98
2019-04-28T21:36:37.005Z,9.50
2019-04-28T21:39:09.642Z,8.93
2019-04-28T21:41:41.629Z,10.25
2019-04-28T21:44:20.812Z,10.93
2019-04-28T21:46:57.809Z,8.98
2019-04-28T21:49:34.618Z,10.20
2019-04-28T21:52:06.312Z,7.72
2019-04-28T21:54:38.089Z,10.25
2019-04-28T21:57:10.010Z,10.20
2019-04-28T21:59:41.826Z,9.83
2019-04-28T22:02:13.429Z,9.95
2019-04-28T22:04:47.008Z,8.95
2019-04-28T22:07:18.191Z,8.43
2019-04-28T22:09:49.821Z,11.43
2019-04-28T22:12:21.905Z,9.73
2019-04-28T22:14:53.872Z,11.60
2019-04-28T22:17:25.772Z,12.03
2019-04-28T22:19:57.933Z,10.30
2019-04-28T22:22:29.642Z,10.90
2019-04-28T22:25:08.576Z,9.70
2019-04-28T22:27:42.056Z,10.43
2019-04-28T22:30:15.064Z,9.48
2019-04-28T22:32:46.881Z,9.35
2019-04-28T22:35:18.816Z,10.18
2019-04-28T22:37:51.675Z,10.95
2019-04-28T22:40:23.383Z,10.35
2019-04-28T22:42:54.701Z,11.40
2019-04-28T22:45:25.891Z,9.70
2019-04-28T22:47:57.845Z,8.78
2019-04-28T22:50:46.595Z,9.08
2019-04-28T22:53:20.573Z,9.03
2019-04-28T22:56:01.527Z,9.48
2019-04-28T22:58:45.630Z,9.48
2019-04-28T23:01:30.367Z,9.68
2019-04-28T23:04:05.852Z,10.43
2019-04-28T23:06:37.901Z,11.78
2019-04-28T23:09:13.512Z,14.20
2019-04-28T23:11:45.094Z,11.30
2019-04-28T23:14:16.996Z,11.53
2019-04-28T23:16:48.299Z,11.50
2019-04-28T23:19:21.515Z,13.18
2019-04-28T23:22:14.870Z,12.30
2019-04-28T23:24:46.249Z,15.15
2019-04-28T23:27:18.226Z,17.45
2019-04-28T23:29:49.587Z,14.65
2019-04-28T23:32:21.356Z,15.13
2019-04-28T23:34:53.451Z,15.72
2019-04-28T23:37:25.256Z,15.03
2019-04-28T23:39:56.770Z,15.38
2019-04-28T23:42:39.175Z,15.53
2019-04-28T23:45:12.424Z,15.15
2019-04-28T23:47:43.891Z,15.20
2019-04-28T23:50:21.503Z,13.43
2019-04-28T23:53:03.395Z,14.40
2019-04-28T23:55:35.030Z,14.60
2019-04-28T23:58:06.614Z,14.93
